Time;durP1;ratioP1;P1;durP2;ratioP2;P2;SDS_P1;SDS_P2;PMS_P1;PMS_P2;Temp;Humidity;BMP_temperature;BMP_pressure;BME280_temperature;BME280_humidity;BME280_pressure;Samples;Min_cycle;Max_cycle;Signal;HPM_P1;HPM_P2
2023/05/14 06:17:00;;;;;;;;;59.75;47.00;;;;;;;;6324582;22;45531;-72
2023/05/14 06:19:25;;;;;;;;;52.50;42.25;;;;;;;;6371533;22;45326;-73
2023/05/14 06:21:51;;;;;;;;;63.00;47.50;;;;;;;;6371696;22;45246;-73
2023/05/14 06:24:16;;;;;;;;;55.50;44.00;;;;;;;;6372068;22;45964;-73
2023/05/14 06:26:41;;;;;;;;;53.25;43.50;;;;;;;;6342311;22;45297;-74
2023/05/14 06:29:06;;;;;;;;;58.50;47.50;;;;;;;;6372409;22;45327;-73
2023/05/14 06:31:31;;;;;;;;;56.50;46.25;;;;;;;;6342950;22;45301;-75
2023/05/14 06:33:57;;;;;;;;;55.00;43.75;;;;;;;;6371871;22;46542;-74
2023/05/14 06:36:22;;;;;;;;;57.00;44.75;;;;;;;;6372092;22;45175;-75
2023/05/14 06:38:47;;;;;;;;;65.25;49.00;;;;;;;;6372602;22;45214;-75
2023/05/14 06:41:12;;;;;;;;;61.25;47.25;;;;;;;;6343080;22;45654;-75
2023/05/14 06:43:37;;;;;;;;;56.50;44.25;;;;;;;;6372266;22;46524;-74
2023/05/14 06:46:03;;;;;;;;;59.50;46.75;;;;;;;;6371093;22;45253;-74
2023/05/14 06:48:28;;;;;;;;;56.25;47.00;;;;;;;;6372219;22;45272;-74
2023/05/14 06:50:53;;;;;;;;;59.00;45.75;;;;;;;;6371490;22;45225;-74
2023/05/14 06:53:18;;;;;;;;;57.25;46.25;;;;;;;;6371837;22;45460;-75
2023/05/14 06:55:45;;;;;;;;;55.50;44.75;;;;;;;;6371839;22;45222;-75
2023/05/14 06:58:11;;;;;;;;;63.25;46.50;;;;;;;;6343803;22;45448;-75
2023/05/14 07:00:36;;;;;;;;;59.25;47.00;;;;;;;;6371254;22;45411;-75
2023/05/14 07:03:01;;;;;;;;;56.50;45.00;;;;;;;;6371905;22;45356;-75
2023/05/14 07:05:26;;;;;;;;;57.25;45.00;;;;;;;;6371931;22;45293;-75
2023/05/14 07:07:51;;;;;;;;;58.25;45.25;;;;;;;;6343650;22;45270;-73
2023/05/14 07:10:18;;;;;;;;;53.50;43.00;;;;;;;;6370427;22;45314;-73
2023/05/14 07:12:44;;;;;;;;;60.25;46.75;;;;;;;;6372041;22;45250;-73
2023/05/14 07:15:09;;;;;;;;;53.00;43.25;;;;;;;;6343079;22;45281;-76
2023/05/14 07:17:34;;;;;;;;;58.25;44.50;;;;;;;;6370697;22;45387;-76
2023/05/14 07:19:59;;;;;;;;;53.75;42.25;;;;;;;;6342952;22;47072;-76
2023/05/14 07:22:25;;;;;;;;;50.00;40.50;;;;;;;;6371117;22;45450;-76
2023/05/14 07:24:50;;;;;;;;;55.50;44.75;;;;;;;;6371741;22;45339;-76
2023/05/14 07:27:18;;;;;;;;;51.75;40.50;;;;;;;;6370916;22;45475;-75
2023/05/14 07:29:43;;;;;;;;;55.50;46.00;;;;;;;;6371230;22;45219;-76
2023/05/14 07:32:08;;;;;;;;;48.50;39.50;;;;;;;;6370999;22;45350;-75
2023/05/14 07:34:33;;;;;;;;;58.00;44.50;;;;;;;;6371628;22;45315;-75
2023/05/14 07:36:59;;;;;;;;;51.50;38.25;;;;;;;;6371566;22;45507;-75
2023/05/14 07:39:24;;;;;;;;;48.25;41.50;;;;;;;;6371599;22;45270;-78
2023/05/14 07:41:50;;;;;;;;;50.50;41.50;;;;;;;;6341939;22;47768;-78
2023/05/14 07:44:15;;;;;;;;;55.50;43.50;;;;;;;;6371189;22;45441;-75
2023/05/14 07:46:40;;;;;;;;;53.50;42.75;;;;;;;;6371253;22;45230;-74
2023/05/14 07:49:05;;;;;;;;;47.00;34.00;;;;;;;;6371502;22;45395;-74
2023/05/14 07:51:32;;;;;;;;;47.75;39.75;;;;;;;;6371136;22;45478;-75
2023/05/14 07:53:57;;;;;;;;;52.00;41.00;;;;;;;;6371684;22;45233;-74
2023/05/14 07:56:22;;;;;;;;;53.00;41.50;;;;;;;;6371421;22;45219;-75
2023/05/14 07:58:48;;;;;;;;;46.75;39.00;;;;;;;;6371702;22;45485;-75
2023/05/14 08:01:13;;;;;;;;;51.25;39.50;;;;;;;;6370862;22;45244;-75
2023/05/14 08:03:38;;;;;;;;;51.50;38.25;;;;;;;;6342466;22;45335;-75
2023/05/14 08:06:04;;;;;;;;;52.50;39.75;;;;;;;;6372681;22;45315;-75
2023/05/14 08:08:29;;;;;;;;;57.25;42.75;;;;;;;;6344255;22;45388;-75
2023/05/14 08:10:54;;;;;;;;;46.00;38.50;;;;;;;;6372150;22;45883;-75
2023/05/14 08:13:20;;;;;;;;;44.25;37.75;;;;;;;;6344541;22;45310;-77
2023/05/14 08:15:45;;;;;;;;;47.75;38.75;;;;;;;;6342853;22;45265;-77
2023/05/14 08:18:10;;;;;;;;;49.50;41.50;;;;;;;;6371842;22;45311;-76
2023/05/14 08:20:36;;;;;;;;;48.75;37.75;;;;;;;;6370602;22;45546;-77
2023/05/14 08:23:01;;;;;;;;;49.00;37.25;;;;;;;;6343515;22;45223;-76
2023/05/14 08:25:26;;;;;;;;;53.50;41.75;;;;;;;;6372203;22;45184;-75
2023/05/14 08:27:52;;;;;;;;;50.75;39.25;;;;;;;;6372534;22;45284;-76
2023/05/14 08:30:18;;;;;;;;;45.75;38.25;;;;;;;;6371953;22;45455;-74
2023/05/14 08:32:43;;;;;;;;;52.75;41.25;;;;;;;;6372065;22;45233;-74
2023/05/14 08:35:08;;;;;;;;;51.50;40.25;;;;;;;;6372545;22;45244;-74
2023/05/14 08:37:33;;;;;;;;;51.25;40.75;;;;;;;;6372335;22;45375;-76
2023/05/14 08:39:59;;;;;;;;;49.75;41.75;;;;;;;;6343943;22;46968;-76
2023/05/14 08:42:25;;;;;;;;;54.25;41.50;;;;;;;;6371725;22;45308;-76
2023/05/14 08:45:01;;;;;;;;;49.50;40.75;;;;;;;;6372558;22;45571;-76
2023/05/14 08:47:27;;;;;;;;;52.25;41.75;;;;;;;;6370935;22;45496;-76
2023/05/14 08:49:59;;;;;;;;;49.25;39.25;;;;;;;;6372018;22;45491;-76
2023/05/14 08:52:25;;;;;;;;;47.00;37.50;;;;;;;;6372000;22;45371;-75
2023/05/14 08:54:52;;;;;;;;;49.75;40.75;;;;;;;;6344102;22;45147;-76
2023/05/14 08:57:19;;;;;;;;;43.50;36.75;;;;;;;;6342546;22;45779;-76
2023/05/14 08:59:44;;;;;;;;;46.75;40.25;;;;;;;;6372175;22;45214;-76
2023/05/14 09:02:11;;;;;;;;;49.75;37.50;;;;;;;;6370969;22;45252;-76
2023/05/14 09:04:37;;;;;;;;;44.25;36.50;;;;;;;;6343829;22;45349;-75
2023/05/14 09:07:02;;;;;;;;;48.50;40.25;;;;;;;;6342066;22;46758;-76
2023/05/14 09:09:28;;;;;;;;;49.00;39.75;;;;;;;;6343582;22;45385;-76
2023/05/14 09:11:53;;;;;;;;;49.75;35.75;;;;;;;;6371409;22;45281;-76
2023/05/14 09:14:19;;;;;;;;;47.00;37.75;;;;;;;;6371697;22;45221;-75
2023/05/14 09:16:45;;;;;;;;;46.75;38.00;;;;;;;;6370458;22;46007;-75
2023/05/14 09:19:11;;;;;;;;;50.00;38.75;;;;;;;;6343044;22;48307;-75
2023/05/14 09:21:36;;;;;;;;;51.25;41.00;;;;;;;;6371894;22;45245;-75
2023/05/14 09:24:02;;;;;;;;;46.00;37.75;;;;;;;;6343263;22;45627;-76
2023/05/14 09:26:30;;;;;;;;;49.50;37.50;;;;;;;;6371953;22;45190;-74
2023/05/14 09:28:56;;;;;;;;;50.75;41.25;;;;;;;;6371399;22;45163;-74
2023/05/14 09:31:22;;;;;;;;;45.00;36.00;;;;;;;;6370481;22;45332;-74
2023/05/14 09:33:51;;;;;;;;;47.25;39.25;;;;;;;;6343125;22;45153;-74
2023/05/14 09:36:16;;;;;;;;;44.50;34.50;;;;;;;;6371792;22;45254;-73
2023/05/14 09:38:41;;;;;;;;;45.75;36.00;;;;;;;;6343328;22;46453;-75
2023/05/14 09:41:07;;;;;;;;;50.25;41.25;;;;;;;;6371551;22;45172;-74
2023/05/14 09:43:32;;;;;;;;;50.50;42.25;;;;;;;;6372094;22;45238;-74
2023/05/14 09:45:57;;;;;;;;;47.25;38.50;;;;;;;;6370970;22;45435;-75
2023/05/14 09:48:23;;;;;;;;;51.75;40.75;;;;;;;;6342906;22;48504;-74
2023/05/14 09:50:50;;;;;;;;;45.75;37.75;;;;;;;;6371766;22;45326;-73
2023/05/14 09:53:16;;;;;;;;;49.25;37.75;;;;;;;;6343235;22;45328;-72
2023/05/14 09:55:41;;;;;;;;;39.50;34.25;;;;;;;;6371498;22;45447;-72
2023/05/14 09:58:06;;;;;;;;;52.50;40.50;;;;;;;;6342771;22;48068;-73
2023/05/14 10:00:32;;;;;;;;;52.50;40.50;;;;;;;;6371840;22;45403;-74
2023/05/14 10:02:58;;;;;;;;;47.00;37.00;;;;;;;;6371889;22;45270;-74
2023/05/14 10:05:23;;;;;;;;;47.50;39.25;;;;;;;;6371726;22;45947;-74
2023/05/14 10:07:50;;;;;;;;;49.25;39.00;;;;;;;;6343057;22;47297;-74
2023/05/14 10:10:18;;;;;;;;;49.25;39.00;;;;;;;;6342712;22;45280;-73
2023/05/14 10:12:47;;;;;;;;;47.25;36.75;;;;;;;;6371490;22;45230;-74
2023/05/14 10:15:18;;;;;;;;;49.00;40.25;;;;;;;;6371144;22;45229;-73
2023/05/14 10:17:47;;;;;;;;;44.25;35.50;;;;;;;;6371061;22;45536;-74
2023/05/14 10:20:15;;;;;;;;;48.50;40.25;;;;;;;;6371054;22;45195;-73
2023/05/14 10:22:40;;;;;;;;;48.50;39.75;;;;;;;;6371722;22;45225;-73
2023/05/14 10:25:06;;;;;;;;;44.75;37.25;;;;;;;;6342840;22;45523;-74
2023/05/14 10:27:31;;;;;;;;;46.00;38.75;;;;;;;;6341939;22;45188;-73
2023/05/14 10:29:56;;;;;;;;;47.50;39.50;;;;;;;;6371839;22;45198;-74
2023/05/14 10:32:25;;;;;;;;;49.50;39.25;;;;;;;;6370531;22;45231;-74
2023/05/14 10:34:53;;;;;;;;;47.75;40.25;;;;;;;;6342870;22;45999;-74
2023/05/14 10:37:25;;;;;;;;;47.50;38.75;;;;;;;;6370693;22;45351;-73
2023/05/14 10:39:56;;;;;;;;;48.00;39.00;;;;;;;;6369937;22;45298;-73
2023/05/14 10:42:26;;;;;;;;;43.75;38.00;;;;;;;;6341870;22;45321;-74
2023/05/14 10:44:51;;;;;;;;;49.00;37.50;;;;;;;;6372130;22;45245;-73
2023/05/14 10:47:17;;;;;;;;;50.00;40.50;;;;;;;;6371046;22;45408;-73
2023/05/14 10:49:43;;;;;;;;;50.00;39.00;;;;;;;;6371861;22;45233;-74
2023/05/14 10:52:09;;;;;;;;;46.50;37.00;;;;;;;;6371501;22;45338;-74
2023/05/14 10:54:35;;;;;;;;;41.50;35.25;;;;;;;;6372104;22;45274;-74
2023/05/14 10:57:00;;;;;;;;;49.25;36.50;;;;;;;;6371534;22;45990;-73
2023/05/14 10:59:26;;;;;;;;;48.75;38.00;;;;;;;;6371863;22;45230;-73
2023/05/14 11:01:52;;;;;;;;;44.25;35.75;;;;;;;;6371451;22;45394;-73
2023/05/14 11:04:18;;;;;;;;;45.00;36.25;;;;;;;;6342903;22;45764;-72
2023/05/14 11:06:43;;;;;;;;;37.50;33.25;;;;;;;;6371530;22;46013;-73
2023/05/14 11:09:09;;;;;;;;;45.00;35.00;;;;;;;;6371862;22;45164;-72
2023/05/14 11:11:34;;;;;;;;;46.25;38.75;;;;;;;;6342633;22;45635;-73
2023/05/14 11:14:00;;;;;;;;;43.50;34.25;;;;;;;;6342862;22;45230;-72
2023/05/14 11:16:29;;;;;;;;;46.50;38.00;;;;;;;;6370641;22;45452;-73
2023/05/14 11:19:03;;;;;;;;;43.50;36.00;;;;;;;;6371920;22;45172;-72
2023/05/14 11:21:31;;;;;;;;;44.25;37.50;;;;;;;;6371340;22;45238;-73
2023/05/14 11:23:56;;;;;;;;;41.50;35.25;;;;;;;;6371548;22;45266;-73
2023/05/14 11:26:22;;;;;;;;;44.00;36.25;;;;;;;;6341985;22;47608;-75
2023/05/14 11:28:47;;;;;;;;;39.50;33.50;;;;;;;;6371595;22;45183;-73
2023/05/14 11:31:12;;;;;;;;;46.50;38.00;;;;;;;;6342510;22;45113;-74
2023/05/14 11:33:38;;;;;;;;;50.00;40.00;;;;;;;;6371858;22;45232;-74
2023/05/14 11:36:04;;;;;;;;;46.75;36.75;;;;;;;;6341609;22;47813;-73
2023/05/14 11:38:29;;;;;;;;;43.75;36.00;;;;;;;;6371786;22;45274;-73
2023/05/14 11:40:55;;;;;;;;;43.67;36.00;;;;;;;;6373216;22;45203;-74
2023/05/14 11:43:23;;;;;;;;;49.75;40.75;;;;;;;;6373323;22;45459;-73
2023/05/14 11:45:50;;;;;;;;;44.50;37.50;;;;;;;;6372495;22;45414;-74
2023/05/14 11:48:15;;;;;;;;;37.67;32.67;;;;;;;;6372984;22;45268;-73
2023/05/14 11:50:43;;;;;;;;;45.33;37.00;;;;;;;;6373100;22;45209;-74
2023/05/14 11:53:09;;;;;;;;;46.00;37.00;;;;;;;;6344407;22;46513;-72
2023/05/14 11:55:35;;;;;;;;;42.00;35.67;;;;;;;;6341005;22;47146;-76
2023/05/14 11:58:00;;;;;;;;;41.00;35.00;;;;;;;;6344299;22;45901;-74
2023/05/14 12:00:25;;;;;;;;;39.33;33.67;;;;;;;;6344108;22;45276;-75
2023/05/14 12:02:51;;;;;;;;;32.67;31.00;;;;;;;;6344421;22;45545;-75
2023/05/14 12:05:16;;;;;;;;;43.00;35.33;;;;;;;;6371973;22;46946;-76
2023/05/14 12:07:43;;;;;;;;;46.00;35.33;;;;;;;;6372899;22;45218;-77
2023/05/14 12:10:10;;;;;;;;;42.67;35.67;;;;;;;;6372790;22;45209;-75
2023/05/14 12:12:36;;;;;;;;;34.33;32.33;;;;;;;;6344298;22;45902;-75
2023/05/14 12:15:01;;;;;;;;;33.67;30.33;;;;;;;;6343994;22;45654;-75
2023/05/14 12:17:26;;;;;;;;;38.67;32.67;;;;;;;;6342973;22;45235;-76
2023/05/14 12:19:51;;;;;;;;;37.00;31.67;;;;;;;;6344526;22;45218;-76
2023/05/14 12:22:18;;;;;;;;;31.67;30.33;;;;;;;;6372487;22;45508;-77
2023/05/14 12:24:51;;;;;;;;;37.67;33.00;;;;;;;;6373386;22;45214;-75
2023/05/14 12:27:16;;;;;;;;;38.00;35.00;;;;;;;;6343522;22;45233;-75
2023/05/14 12:29:41;;;;;;;;;36.67;32.33;;;;;;;;6373293;22;45194;-75
2023/05/14 12:32:08;;;;;;;;;40.67;30.67;;;;;;;;6371987;22;45434;-76
2023/05/14 12:34:33;;;;;;;;;35.67;33.00;;;;;;;;6344797;22;46483;-75
2023/05/14 12:36:59;;;;;;;;;34.00;30.00;;;;;;;;6372419;22;45149;-75
2023/05/14 12:39:24;;;;;;;;;33.33;32.00;;;;;;;;6373027;22;45350;-76
2023/05/14 12:41:49;;;;;;;;;31.67;29.67;;;;;;;;6343366;22;45816;-75
2023/05/14 12:44:14;;;;;;;;;36.00;33.00;;;;;;;;6372449;22;45285;-75
2023/05/14 12:46:39;;;;;;;;;37.00;31.67;;;;;;;;6372223;22;45268;-75
2023/05/14 12:49:05;;;;;;;;;37.33;31.67;;;;;;;;6343836;22;45268;-76
2023/05/14 12:51:30;;;;;;;;;35.67;31.67;;;;;;;;6372173;22;45339;-79
2023/05/14 12:53:56;;;;;;;;;63.00;50.00;;;;;;;;6372495;22;45414;-77
2023/05/14 12:56:26;;;;;;;;;36.00;30.00;;;;;;;;6372484;22;45267;-76
2023/05/14 12:58:51;;;;;;;;;35.00;30.67;;;;;;;;6372870;22;45143;-76
2023/05/14 13:01:16;;;;;;;;;36.00;30.33;;;;;;;;6371998;22;45160;-75
2023/05/14 13:03:42;;;;;;;;;31.33;30.33;;;;;;;;6372814;22;46531;-75
2023/05/14 13:06:07;;;;;;;;;32.33;30.33;;;;;;;;6372281;22;45213;-76
2023/05/14 13:08:32;;;;;;;;;26.00;24.67;;;;;;;;6372371;22;45141;-76
2023/05/14 13:10:58;;;;;;;;;29.33;23.00;;;;;;;;6372357;22;45357;-76
2023/05/14 13:13:23;;;;;;;;;32.00;29.67;;;;;;;;6343729;22;46520;-79
2023/05/14 13:15:48;;;;;;;;;32.00;31.00;;;;;;;;6343392;22;45161;-80
2023/05/14 13:18:13;;;;;;;;;27.33;24.33;;;;;;;;6343710;22;45277;-78
2023/05/14 13:20:39;;;;;;;;;25.67;24.33;;;;;;;;6372447;22;45507;-77
2023/05/14 13:23:04;;;;;;;;;28.33;26.33;;;;;;;;6343429;22;46110;-79
2023/05/14 13:25:29;;;;;;;;;27.25;26.75;;;;;;;;6372553;22;45262;-80
2023/05/14 13:27:55;;;;;;;;;26.00;23.25;;;;;;;;6373080;22;45233;-80
2023/05/14 13:30:20;;;;;;;;;22.67;22.67;;;;;;;;6342613;22;46688;-77
2023/05/14 13:32:45;;;;;;;;;31.67;25.33;;;;;;;;6343221;22;47448;-79
2023/05/14 13:35:11;;;;;;;;;25.75;25.00;;;;;;;;6372620;22;45256;-80
2023/05/14 13:37:36;;;;;;;;;20.25;20.25;;;;;;;;6371628;22;45304;-78
2023/05/14 13:40:03;;;;;;;;;27.00;25.75;;;;;;;;6372862;22;45313;-76
2023/05/14 13:42:28;;;;;;;;;23.75;21.25;;;;;;;;6343570;22;47940;-80
2023/05/14 13:44:55;;;;;;;;;19.25;19.25;;;;;;;;6344172;22;45266;-79
2023/05/14 13:47:20;;;;;;;;;27.50;25.50;;;;;;;;6372049;22;45206;-78
2023/05/14 13:49:45;;;;;;;;;28.00;27.75;;;;;;;;6343211;22;45473;-79
2023/05/14 13:52:10;;;;;;;;;28.00;25.25;;;;;;;;6371737;22;46302;-78
2023/05/14 13:54:36;;;;;;;;;29.25;26.00;;;;;;;;6372713;22;45148;-79
2023/05/14 13:57:01;;;;;;;;;22.00;20.75;;;;;;;;6372557;22;45295;-80
2023/05/14 13:59:26;;;;;;;;;32.75;25.50;;;;;;;;6372691;22;45876;-78
2023/05/14 14:01:52;;;;;;;;;29.50;26.25;;;;;;;;6371387;22;45564;-78
2023/05/14 14:04:18;;;;;;;;;21.50;21.00;;;;;;;;6343576;22;45270;-78
2023/05/14 14:06:43;;;;;;;;;24.00;21.00;;;;;;;;6343866;22;45207;-79
2023/05/14 14:09:09;;;;;;;;;26.50;25.75;;;;;;;;6343842;22;45511;-78
2023/05/14 14:11:34;;;;;;;;;19.75;19.75;;;;;;;;6372258;22;45601;-79
2023/05/14 14:13:59;;;;;;;;;22.75;22.75;;;;;;;;6343456;22;45231;-80
2023/05/14 14:16:25;;;;;;;;;27.25;24.50;;;;;;;;6372032;22;45297;-78
2023/05/14 14:18:50;;;;;;;;;19.25;18.25;;;;;;;;6372407;22;45616;-76
2023/05/14 14:21:16;;;;;;;;;22.50;20.00;;;;;;;;6371917;22;45404;-75
2023/05/14 14:23:42;;;;;;;;;25.75;22.50;;;;;;;;6372347;22;45285;-75
2023/05/14 14:26:07;;;;;;;;;21.75;21.75;;;;;;;;6343157;22;45405;-76
2023/05/14 14:28:32;;;;;;;;;22.50;21.50;;;;;;;;6372343;22;45420;-75
2023/05/14 14:30:58;;;;;;;;;21.00;20.00;;;;;;;;6371439;22;45312;-74
2023/05/14 14:33:23;;;;;;;;;17.50;17.50;;;;;;;;6372295;22;45286;-74
2023/05/14 14:35:48;;;;;;;;;18.25;18.25;;;;;;;;6343298;22;45342;-74
2023/05/14 14:38:13;;;;;;;;;19.00;17.25;;;;;;;;6372438;22;45273;-75
2023/05/14 14:40:39;;;;;;;;;20.50;18.00;;;;;;;;6372105;22;46444;-74
2023/05/14 14:43:04;;;;;;;;;16.75;16.25;;;;;;;;6372208;22;45250;-73
2023/05/14 14:45:29;;;;;;;;;13.00;13.00;;;;;;;;6372007;22;45189;-74
2023/05/14 14:48:15;;;;;;;;;19.75;17.75;;;;;;;;6343457;22;45472;-73
2023/05/14 14:50:40;;;;;;;;;19.50;18.25;;;;;;;;6343139;22;45620;-73
2023/05/14 14:53:05;;;;;;;;;16.25;14.25;;;;;;;;6343374;22;45233;-72
2023/05/14 14:55:30;;;;;;;;;16.75;16.00;;;;;;;;6372298;22;45222;-74
2023/05/14 14:57:55;;;;;;;;;15.25;14.00;;;;;;;;6372220;22;45202;-74
2023/05/14 15:00:21;;;;;;;;;16.50;15.25;;;;;;;;6371134;22;46184;-75
2023/05/14 15:02:46;;;;;;;;;15.75;14.75;;;;;;;;6372218;22;45280;-74
2023/05/14 15:05:11;;;;;;;;;17.75;16.25;;;;;;;;6372228;22;45509;-75
2023/05/14 15:07:36;;;;;;;;;19.25;18.25;;;;;;;;6372247;22;45288;-74
2023/05/14 15:10:01;;;;;;;;;18.00;16.00;;;;;;;;6367557;22;45739;-73
2023/05/14 15:12:27;;;;;;;;;19.25;16.25;;;;;;;;6339893;22;45261;-73
2023/05/14 15:14:52;;;;;;;;;19.00;16.75;;;;;;;;6369388;22;45237;-74
2023/05/14 15:17:17;;;;;;;;;17.50;15.75;;;;;;;;6368557;22;45416;-75
2023/05/14 15:19:42;;;;;;;;;13.00;11.50;;;;;;;;6369467;22;45386;-75
2023/05/14 15:22:07;;;;;;;;;13.50;13.50;;;;;;;;6369115;22;45266;-75
2023/05/14 15:24:33;;;;;;;;;15.00;14.00;;;;;;;;6340878;22;45248;-76
2023/05/14 15:26:58;;;;;;;;;13.75;12.25;;;;;;;;6367322;22;45293;-75
2023/05/14 15:29:23;;;;;;;;;13.25;13.25;;;;;;;;6369230;22;46031;-75
2023/05/14 15:31:48;;;;;;;;;14.00;11.50;;;;;;;;6340329;22;45204;-75
2023/05/14 15:34:14;;;;;;;;;19.50;16.50;;;;;;;;6369404;22;45360;-76
2023/05/14 15:36:39;;;;;;;;;16.25;14.50;;;;;;;;6370879;22;45162;-76
2023/05/14 15:39:05;;;;;;;;;13.50;12.50;;;;;;;;6342975;22;47400;-74
2023/05/14 15:41:30;;;;;;;;;14.00;12.75;;;;;;;;6371626;22;45313;-74
2023/05/14 15:43:57;;;;;;;;;14.00;12.00;;;;;;;;6372053;22;45285;-75
2023/05/14 15:46:22;;;;;;;;;14.00;13.75;;;;;;;;6342411;22;45678;-75
2023/05/14 15:48:48;;;;;;;;;16.75;14.00;;;;;;;;6371794;22;46246;-75
2023/05/14 15:51:13;;;;;;;;;18.50;17.00;;;;;;;;6371363;22;45224;-74
2023/05/14 15:53:38;;;;;;;;;14.75;13.75;;;;;;;;6372212;22;45326;-75
2023/05/14 15:56:03;;;;;;;;;14.50;13.50;;;;;;;;6342908;22;45817;-74
2023/05/14 15:58:28;;;;;;;;;10.25;10.25;;;;;;;;6371824;22;45293;-75
2023/05/14 16:00:54;;;;;;;;;14.00;14.00;;;;;;;;6370773;22;45353;-75
2023/05/14 16:03:19;;;;;;;;;14.00;14.00;;;;;;;;6342883;22;45219;-75
2023/05/14 16:05:44;;;;;;;;;17.25;15.00;;;;;;;;6370588;22;45351;-74
2023/05/14 16:08:09;;;;;;;;;15.75;13.75;;;;;;;;6371346;22;45272;-75
2023/05/14 16:10:35;;;;;;;;;14.25;12.00;;;;;;;;6371164;22;45250;-75
2023/05/14 16:13:00;;;;;;;;;18.75;17.00;;;;;;;;6342970;22;45179;-74
2023/05/14 16:15:25;;;;;;;;;14.75;12.50;;;;;;;;6371213;22;45142;-75
2023/05/14 16:17:50;;;;;;;;;14.25;14.25;;;;;;;;6370948;22;45218;-74
2023/05/14 16:20:16;;;;;;;;;16.75;14.50;;;;;;;;6371446;22;45231;-74
2023/05/14 16:22:41;;;;;;;;;13.25;13.25;;;;;;;;6371741;22;45151;-74
2023/05/14 16:25:06;;;;;;;;;15.25;15.25;;;;;;;;6371819;22;45233;-74
2023/05/14 16:27:31;;;;;;;;;15.00;15.00;;;;;;;;6372294;22;45235;-76
2023/05/14 16:29:57;;;;;;;;;14.75;14.75;;;;;;;;6373232;22;45139;-75
2023/05/14 16:32:23;;;;;;;;;19.25;17.00;;;;;;;;6373041;22;45209;-75
2023/05/14 16:34:48;;;;;;;;;16.50;15.25;;;;;;;;6373222;22;45120;-75
2023/05/14 16:37:20;;;;;;;;;17.25;15.00;;;;;;;;6372739;22;45522;-75
2023/05/14 16:39:45;;;;;;;;;14.00;12.75;;;;;;;;6373195;22;45204;-75
2023/05/14 16:42:10;;;;;;;;;14.25;14.25;;;;;;;;6344358;22;45204;-75
2023/05/14 16:44:36;;;;;;;;;16.75;16.75;;;;;;;;6373338;22;45132;-75
2023/05/14 16:47:01;;;;;;;;;13.00;13.00;;;;;;;;6372151;22;46415;-74
2023/05/14 16:49:26;;;;;;;;;13.50;13.50;;;;;;;;6344768;22;45160;-75
2023/05/14 16:51:51;;;;;;;;;14.25;13.00;;;;;;;;6372710;22;45392;-75
2023/05/14 16:54:16;;;;;;;;;15.25;15.25;;;;;;;;6344593;22;45711;-75
2023/05/14 16:56:46;;;;;;;;;14.00;13.25;;;;;;;;6372401;22;45211;-75
2023/05/14 16:59:11;;;;;;;;;13.00;13.00;;;;;;;;6344323;22;45311;-76
2023/05/14 17:01:37;;;;;;;;;18.25;17.00;;;;;;;;6372418;22;45282;-74
2023/05/14 17:04:02;;;;;;;;;18.67;18.00;;;;;;;;6373070;22;45258;-75
2023/05/14 17:06:27;;;;;;;;;14.75;14.75;;;;;;;;6372616;22;46432;-75
2023/05/14 17:08:52;;;;;;;;;18.50;16.25;;;;;;;;6344065;22;45235;-76
2023/05/14 17:11:18;;;;;;;;;15.75;15.75;;;;;;;;6372682;22;45242;-77
2023/05/14 17:13:43;;;;;;;;;14.75;14.75;;;;;;;;6373136;22;45253;-77
2023/05/14 17:16:08;;;;;;;;;16.00;13.50;;;;;;;;6371943;22;45243;-75
2023/05/14 17:18:33;;;;;;;;;15.50;15.50;;;;;;;;6373121;22;45229;-76
2023/05/14 17:20:59;;;;;;;;;41.00;35.00;;;;;;;;6343908;22;45334;-76
2023/05/14 17:23:24;;;;;;;;;43.67;37.67;;;;;;;;6344349;22;46240;-76
2023/05/14 17:25:49;;;;;;;;;17.67;17.67;;;;;;;;6372506;22;45359;-76
2023/05/14 17:28:14;;;;;;;;;16.33;14.67;;;;;;;;6343615;22;45188;-77
2023/05/14 17:30:40;;;;;;;;;19.33;15.67;;;;;;;;6372475;22;45368;-77
2023/05/14 17:33:05;;;;;;;;;16.00;16.00;;;;;;;;6372916;22;45273;-74
2023/05/14 17:35:34;;;;;;;;;23.00;19.00;;;;;;;;6372352;22;45182;-75
2023/05/14 17:37:59;;;;;;;;;20.67;18.00;;;;;;;;6372376;22;45195;-75
2023/05/14 17:40:25;;;;;;;;;17.33;16.00;;;;;;;;6372784;22;45148;-74
2023/05/14 17:42:50;;;;;;;;;15.67;15.33;;;;;;;;6343892;22;46704;-75
2023/05/14 17:45:19;;;;;;;;;19.00;18.00;;;;;;;;6372130;22;45276;-74
2023/05/14 17:47:45;;;;;;;;;20.00;15.67;;;;;;;;6372112;22;45237;-75
2023/05/14 17:50:10;;;;;;;;;13.00;13.00;;;;;;;;6372906;22;45281;-75
2023/05/14 17:52:36;;;;;;;;;14.00;14.00;;;;;;;;6344035;22;47083;-75
2023/05/14 17:55:01;;;;;;;;;17.00;17.00;;;;;;;;6344222;22;45498;-77
2023/05/14 17:57:27;;;;;;;;;14.33;14.33;;;;;;;;6343933;22;45273;-78
2023/05/14 17:59:52;;;;;;;;;14.33;14.33;;;;;;;;6343757;22;45204;-77
2023/05/14 18:02:17;;;;;;;;;17.67;16.33;;;;;;;;6372143;22;45428;-78
2023/05/14 18:04:42;;;;;;;;;56.50;45.75;;;;;;;;6372684;22;45501;-75
2023/05/14 18:07:07;;;;;;;;;63.00;49.50;;;;;;;;6372244;22;45273;-75
2023/05/14 18:09:33;;;;;;;;;59.67;48.00;;;;;;;;6372788;22;45297;-75
2023/05/14 18:11:58;;;;;;;;;27.00;24.67;;;;;;;;6372270;22;45169;-76
2023/05/14 18:14:23;;;;;;;;;15.00;14.00;;;;;;;;6372804;22;45325;-76
2023/05/14 18:16:48;;;;;;;;;16.67;16.67;;;;;;;;6341714;22;45306;-76
2023/05/14 18:19:14;;;;;;;;;16.33;16.33;;;;;;;;6373009;22;45783;-73
2023/05/14 18:21:39;;;;;;;;;15.33;13.00;;;;;;;;6343506;22;45835;-74
2023/05/14 18:24:04;;;;;;;;;20.33;19.00;;;;;;;;6372543;22;45247;-74
2023/05/14 18:26:30;;;;;;;;;20.00;19.33;;;;;;;;6372396;22;45254;-74
2023/05/14 18:28:56;;;;;;;;;21.33;18.67;;;;;;;;6372511;22;45640;-74
2023/05/14 18:31:21;;;;;;;;;18.00;17.33;;;;;;;;6371893;22;45397;-73
2023/05/14 18:33:46;;;;;;;;;14.67;14.67;;;;;;;;6372551;22;46257;-77
2023/05/14 18:36:11;;;;;;;;;18.67;16.33;;;;;;;;6372528;22;45354;-71
2023/05/14 18:38:37;;;;;;;;;16.33;16.00;;;;;;;;6372625;22;45227;-71
2023/05/14 18:41:02;;;;;;;;;17.33;16.33;;;;;;;;6372253;22;45257;-74
2023/05/14 18:43:27;;;;;;;;;20.00;19.67;;;;;;;;6372422;22;45261;-72
2023/05/14 18:45:53;;;;;;;;;21.33;20.33;;;;;;;;6372071;22;45291;-71
2023/05/14 18:48:18;;;;;;;;;24.00;20.67;;;;;;;;6343662;22;45349;-71
2023/05/14 18:50:43;;;;;;;;;21.33;18.33;;;;;;;;6372530;22;45278;-71
2023/05/14 18:53:08;;;;;;;;;31.33;27.67;;;;;;;;6372332;22;46149;-71
2023/05/14 18:55:34;;;;;;;;;22.67;17.33;;;;;;;;6372590;22;45270;-72
2023/05/14 18:58:00;;;;;;;;;18.00;17.67;;;;;;;;6372765;22;45218;-71
2023/05/14 19:00:25;;;;;;;;;16.00;14.33;;;;;;;;6342649;22;45802;-71
2023/05/14 19:02:50;;;;;;;;;16.67;16.67;;;;;;;;6372226;22;46680;-71
2023/05/14 19:05:15;;;;;;;;;16.00;15.67;;;;;;;;6372421;22;45222;-71
2023/05/14 19:07:42;;;;;;;;;16.00;14.67;;;;;;;;6372452;22;45551;-72
2023/05/14 19:10:08;;;;;;;;;17.67;15.00;;;;;;;;6372621;22;45210;-71
2023/05/14 19:12:33;;;;;;;;;17.67;17.67;;;;;;;;6371742;22;45490;-71
2023/05/14 19:14:58;;;;;;;;;17.67;15.67;;;;;;;;6372520;22;45230;-72
2023/05/14 19:17:23;;;;;;;;;19.00;16.67;;;;;;;;6371326;22;45143;-71
2023/05/14 19:19:49;;;;;;;;;17.00;16.00;;;;;;;;6372704;22;45501;-74
2023/05/14 19:22:14;;;;;;;;;19.67;16.33;;;;;;;;6371989;22;46058;-73
2023/05/14 19:24:39;;;;;;;;;19.00;18.00;;;;;;;;6372565;22;45148;-72
2023/05/14 19:27:05;;;;;;;;;16.67;16.67;;;;;;;;6369680;22;45677;-72
2023/05/14 19:29:32;;;;;;;;;18.00;18.00;;;;;;;;6372132;22;45291;-72
2023/05/14 19:31:57;;;;;;;;;18.33;17.67;;;;;;;;6371283;22;45616;-72
2023/05/14 19:34:22;;;;;;;;;19.33;17.67;;;;;;;;6372083;22;45297;-73
2023/05/14 19:36:48;;;;;;;;;18.00;17.67;;;;;;;;6341666;22;45565;-72
2023/05/14 19:39:13;;;;;;;;;17.00;16.33;;;;;;;;6371982;22;45200;-72
2023/05/14 19:41:38;;;;;;;;;21.33;20.00;;;;;;;;6371308;22;46534;-72
2023/05/14 19:44:04;;;;;;;;;22.67;22.67;;;;;;;;6343149;22;45231;-72
2023/05/14 19:46:29;;;;;;;;;22.67;20.33;;;;;;;;6371158;22;45613;-72
2023/05/14 19:48:54;;;;;;;;;25.67;23.67;;;;;;;;6371751;22;45261;-71
2023/05/14 19:51:19;;;;;;;;;25.33;23.67;;;;;;;;6371306;22;46112;-73
2023/05/14 19:53:44;;;;;;;;;20.00;19.33;;;;;;;;6343295;22;45274;-71
2023/05/14 19:56:10;;;;;;;;;21.67;21.67;;;;;;;;6371750;22;45253;-72
2023/05/14 19:58:35;;;;;;;;;25.00;24.00;;;;;;;;6370966;22;46679;-71
2023/05/14 20:01:00;;;;;;;;;24.00;21.67;;;;;;;;6371528;22;45397;-72
2023/05/14 20:03:25;;;;;;;;;26.00;23.33;;;;;;;;6373082;22;45180;-71
2023/05/14 20:05:52;;;;;;;;;22.67;22.67;;;;;;;;6372824;22;45179;-72
2023/05/14 20:08:17;;;;;;;;;24.33;19.33;;;;;;;;6343670;22;46573;-72
2023/05/14 20:10:43;;;;;;;;;22.67;20.67;;;;;;;;6372656;22;45452;-72
2023/05/14 20:13:09;;;;;;;;;21.67;21.33;;;;;;;;6344119;22;45194;-72
2023/05/14 20:15:34;;;;;;;;;24.67;23.00;;;;;;;;6372653;22;45213;-72
2023/05/14 20:18:00;;;;;;;;;21.00;21.00;;;;;;;;6372798;22;45135;-72
2023/05/14 20:20:25;;;;;;;;;27.00;24.33;;;;;;;;6372412;22;45261;-72
2023/05/14 20:22:50;;;;;;;;;21.00;20.00;;;;;;;;6372819;22;45598;-71